createdAt,value
2023-03-02T00:00:38.819Z,38.27
2023-03-02T00:01:44.557Z,38.57
2023-03-02T00:02:47.359Z,39.06
2023-03-02T00:03:49.197Z,38.51
2023-03-02T00:04:53.199Z,38.76
2023-03-02T00:05:55.843Z,38.55
2023-03-02T00:07:01.687Z,38.84
2023-03-02T00:08:03.761Z,39.10
2023-03-02T00:09:06.703Z,38.89
2023-03-02T00:10:09.618Z,38.24
2023-03-02T00:11:12.696Z,38.94
2023-03-02T00:12:15.837Z,38.95
2023-03-02T00:13:19.879Z,38.77
2023-03-02T00:14:21.539Z,38.68
2023-03-02T00:15:24.214Z,39.09
2023-03-02T00:16:26.180Z,38.42
2023-03-02T00:17:29.031Z,38.35
2023-03-02T00:18:31.328Z,38.37
2023-03-02T00:19:34.002Z,39.07
2023-03-02T00:20:36.014Z,38.96
2023-03-02T00:21:38.655Z,39.21
2023-03-02T00:22:42.586Z,39.08
2023-03-02T00:23:45.426Z,39.11
2023-03-02T00:24:47.089Z,39.05
2023-03-02T00:25:49.858Z,38.62
2023-03-02T00:26:51.627Z,38.55
2023-03-02T00:27:54.296Z,38.79
2023-03-02T00:28:57.443Z,38.04
2023-03-02T00:30:00.176Z,38.51
2023-03-02T00:31:04.903Z,39.05
2023-03-02T00:32:08.998Z,38.75
2023-03-02T00:33:10.748Z,38.55
2023-03-02T00:34:13.489Z,38.98
2023-03-02T00:35:15.607Z,38.36
2023-03-02T00:36:18.970Z,39.11
2023-03-02T00:37:20.855Z,39.04
2023-03-02T00:38:23.596Z,39.15
2023-03-02T00:39:25.310Z,38.54
2023-03-02T00:40:28.132Z,39.17
2023-03-02T00:41:29.846Z,38.59
2023-03-02T00:42:32.662Z,38.91
2023-03-02T00:43:34.346Z,39.28
2023-03-02T00:44:38.351Z,38.73
2023-03-02T00:45:40.137Z,38.75
2023-03-02T00:46:42.827Z,39.14
2023-03-02T00:47:44.603Z,38.99
2023-03-02T00:48:47.749Z,39.50
2023-03-02T00:49:49.637Z,39.64
2023-03-02T00:50:53.934Z,38.77
2023-03-02T00:51:55.705Z,39.22
2023-03-02T00:52:58.456Z,39.28
2023-03-02T00:54:02.876Z,40.04
2023-03-02T00:55:06.564Z,39.43
2023-03-02T00:56:08.909Z,39.57
2023-03-02T00:57:11.838Z,40.44
2023-03-02T00:58:13.556Z,39.59
2023-03-02T00:59:26.342Z,40.04
2023-03-02T01:00:29.864Z,39.85
2023-03-02T01:01:32.573Z,39.96
2023-03-02T01:02:34.359Z,40.16
2023-03-02T01:03:37.339Z,40.68
2023-03-02T01:04:40.723Z,40.55
2023-03-02T01:05:43.409Z,40.58
2023-03-02T01:06:47.165Z,40.37
2023-03-02T01:07:49.901Z,40.02
2023-03-02T01:08:51.748Z,40.25
2023-03-02T01:09:54.412Z,40.36
2023-03-02T01:10:56.241Z,40.21
2023-03-02T01:11:59.052Z,40.35
2023-03-02T01:13:00.767Z,41.00
2023-03-02T01:14:03.444Z,40.88
2023-03-02T01:15:06.536Z,40.46
2023-03-02T01:16:10.578Z,41.17
2023-03-02T01:17:13.022Z,40.86
2023-03-02T01:18:15.898Z,40.64
2023-03-02T01:19:17.671Z,40.88
2023-03-02T01:20:20.643Z,41.06
2023-03-02T01:21:22.458Z,40.69
2023-03-02T01:22:25.187Z,40.37
2023-03-02T01:23:26.879Z,41.09
2023-03-02T01:24:29.803Z,40.68
2023-03-02T01:25:31.510Z,40.58
2023-03-02T01:26:34.429Z,40.57
2023-03-02T01:27:36.536Z,40.41
2023-03-02T01:28:39.252Z,41.05
2023-03-02T01:29:41.115Z,40.96
2023-03-02T01:30:43.865Z,40.54
2023-03-02T01:31:47.043Z,41.23
2023-03-02T01:32:49.856Z,40.85
2023-03-02T01:33:51.789Z,41.07
2023-03-02T01:34:54.586Z,41.46
2023-03-02T01:35:56.476Z,40.82
2023-03-02T01:36:59.178Z,40.98
2023-03-02T01:38:00.927Z,41.30
2023-03-02T01:39:04.407Z,41.46
2023-03-02T01:40:07.505Z,41.25
2023-03-02T01:41:10.539Z,41.41
2023-03-02T01:42:12.337Z,41.07
2023-03-02T01:43:17.172Z,41.18
2023-03-02T01:44:42.772Z,41.44
2023-03-02T01:45:52.098Z,41.71
2023-03-02T01:46:56.368Z,41.31
2023-03-02T01:47:58.090Z,41.11
2023-03-02T01:49:03.140Z,41.49
2023-03-02T01:50:07.437Z,41.35
2023-03-02T01:51:15.928Z,41.50
2023-03-02T01:52:18.173Z,41.25
2023-03-02T01:53:21.833Z,41.52
2023-03-02T01:54:23.788Z,41.45
2023-03-02T01:55:30.146Z,41.67
2023-03-02T01:56:35.089Z,41.44
2023-03-02T01:57:43.658Z,41.55
2023-03-02T01:58:46.621Z,41.49
2023-03-02T01:59:51.814Z,41.42
2023-03-02T02:00:54.930Z,42.25
2023-03-02T02:02:01.998Z,41.51
2023-03-02T02:03:08.859Z,41.56
2023-03-02T02:04:11.863Z,42.08
2023-03-02T02:05:16.424Z,41.91
2023-03-02T02:06:23.511Z,42.10
2023-03-02T02:07:25.231Z,42.10
2023-03-02T02:08:28.260Z,42.12
2023-03-02T02:09:32.136Z,42.01
2023-03-02T02:10:35.544Z,41.78
2023-03-02T02:11:38.271Z,41.87
2023-03-02T02:12:40.966Z,41.48
2023-03-02T02:13:43.476Z,41.51
2023-03-02T02:14:47.149Z,42.02
2023-03-02T02:15:48.847Z,41.75
2023-03-02T02:16:51.763Z,41.83
2023-03-02T02:17:55.634Z,42.31
2023-03-02T02:18:58.472Z,41.78
2023-03-02T02:20:09.345Z,42.51
2023-03-02T02:21:12.554Z,41.72
2023-03-02T02:22:16.129Z,42.13
2023-03-02T02:23:26.821Z,41.95
2023-03-02T02:24:31.814Z,42.16
2023-03-02T02:25:46.634Z,42.18
2023-03-02T02:26:51.585Z,41.89
2023-03-02T02:27:54.521Z,41.71
2023-03-02T02:29:00.705Z,41.81
2023-03-02T02:30:04.691Z,41.83
2023-03-02T02:31:14.482Z,42.30
2023-03-02T02:32:19.467Z,42.05
2023-03-02T02:33:23.746Z,41.96
2023-03-02T02:34:30.549Z,42.46
2023-03-02T02:35:34.824Z,42.24
2023-03-02T02:36:41.836Z,42.55
2023-03-02T02:37:46.072Z,42.04
2023-03-02T02:38:52.259Z,42.66
2023-03-02T02:39:54.912Z,42.48
2023-03-02T02:40:58.968Z,42.76
2023-03-02T02:42:03.908Z,42.11
2023-03-02T02:43:07.525Z,42.36
2023-03-02T02:44:11.916Z,41.97
2023-03-02T02:45:21.136Z,41.98
2023-03-02T02:46:23.124Z,42.39
2023-03-02T02:47:26.173Z,42.04
2023-03-02T02:48:31.214Z,42.52
2023-03-02T02:49:36.587Z,42.25
2023-03-02T02:50:38.322Z,42.60
2023-03-02T02:51:41.065Z,42.49
2023-03-02T02:52:44.213Z,42.09
2023-03-02T02:53:49.802Z,42.53
2023-03-02T02:54:53.368Z,41.81
2023-03-02T02:55:58.465Z,42.22
2023-03-02T02:57:03.149Z,42.05
2023-03-02T02:58:27.084Z,42.20
2023-03-02T02:59:32.206Z,42.38
2023-03-02T03:00:34.871Z,42.11
2023-03-02T03:01:36.658Z,42.42
2023-03-02T03:02:45.212Z,42.61
2023-03-02T03:03:50.625Z,41.88
2023-03-02T03:05:02.441Z,41.97
2023-03-02T03:06:06.972Z,42.04
2023-03-02T03:07:11.875Z,42.13
2023-03-02T03:08:46.676Z,42.35
2023-03-02T03:09:53.853Z,42.11
2023-03-02T03:10:55.609Z,42.14
2023-03-02T03:11:59.724Z,42.42
2023-03-02T03:13:02.786Z,41.92
2023-03-02T03:14:09.475Z,42.14
2023-03-02T03:15:11.753Z,42.13
2023-03-02T03:16:16.628Z,42.30
2023-03-02T03:17:19.455Z,42.01
2023-03-02T03:18:23.768Z,42.04
2023-03-02T03:19:29.023Z,42.53
2023-03-02T03:20:30.758Z,42.34
2023-03-02T03:21:33.801Z,41.83
2023-03-02T03:22:37.345Z,42.37
2023-03-02T03:23:39.074Z,41.99
2023-03-02T03:24:42.633Z,41.88
2023-03-02T03:25:44.329Z,41.75
2023-03-02T03:26:47.168Z,42.08
2023-03-02T03:27:48.884Z,42.00
2023-03-02T03:28:53.658Z,41.89
2023-03-02T03:29:56.496Z,42.55
2023-03-02T03:30:58.265Z,42.12
2023-03-02T03:32:02.080Z,42.31
2023-03-02T03:33:03.924Z,41.75
2023-03-02T03:34:06.739Z,42.06
2023-03-02T03:35:11.525Z,42.21
2023-03-02T03:36:14.212Z,42.49
2023-03-02T03:37:21.735Z,42.63
2023-03-02T03:38:24.639Z,41.95
2023-03-02T03:39:27.198Z,42.04
2023-03-02T03:40:30.025Z,42.63
2023-03-02T03:41:32.170Z,41.89
2023-03-02T03:42:34.875Z,42.38
2023-03-02T03:43:36.648Z,42.10
2023-03-02T03:44:40.712Z,42.36
2023-03-02T03:45:42.460Z,42.28
2023-03-02T03:46:45.147Z,42.25
2023-03-02T03:47:46.910Z,42.09
2023-03-02T03:48:49.689Z,42.03
2023-03-02T03:49:51.405Z,41.96
2023-03-02T03:50:54.183Z,41.83
2023-03-02T03:51:55.997Z,42.34
2023-03-02T03:52:58.765Z,42.36
2023-03-02T03:54:00.534Z,42.11
2023-03-02T03:55:03.935Z,41.71
2023-03-02T03:56:06.316Z,42.28
2023-03-02T03:57:11.276Z,42.47
2023-03-02T03:58:12.995Z,42.26
2023-03-02T03:59:18.123Z,42.23
2023-03-02T04:00:22.431Z,42.21
2023-03-02T04:01:34.891Z,42.12
2023-03-02T04:02:36.927Z,42.11
2023-03-02T04:03:39.684Z,41.90
2023-03-02T04:04:41.420Z,41.98
2023-03-02T04:05:44.118Z,42.25
2023-03-02T04:06:46.045Z,42.33
2023-03-02T04:07:49.331Z,42.24
2023-03-02T04:08:51.047Z,41.89
2023-03-02T04:10:03.606Z,42.27
2023-03-02T04:11:05.330Z,42.00
2023-03-02T04:12:09.316Z,41.95
2023-03-02T04:13:11.923Z,42.00
2023-03-02T04:14:14.921Z,42.18
2023-03-02T04:15:17.329Z,41.83
2023-03-02T04:16:21.368Z,42.03
2023-03-02T04:17:23.154Z,42.33
2023-03-02T04:18:25.817Z,42.52
2023-03-02T04:19:27.524Z,42.28
2023-03-02T04:20:31.086Z,42.02
2023-03-02T04:21:32.778Z,42.44
2023-03-02T04:22:35.425Z,41.89
2023-03-02T04:23:37.104Z,42.38
2023-03-02T04:24:39.804Z,42.24
2023-03-02T04:25:41.539Z,42.23
2023-03-02T04:26:44.562Z,42.31
2023-03-02T04:27:46.697Z,42.19
2023-03-02T04:28:50.807Z,42.17
2023-03-02T04:29:53.064Z,42.42
2023-03-02T04:30:55.942Z,42.52
2023-03-02T04:31:59.087Z,42.78
2023-03-02T04:33:01.850Z,41.98
2023-03-02T04:34:04.251Z,42.73
2023-03-02T04:35:07.813Z,42.59
2023-03-02T04:36:10.000Z,41.90
2023-03-02T04:37:13.283Z,42.83
2023-03-02T04:38:15.082Z,42.86
2023-03-02T04:39:19.458Z,42.58
2023-03-02T04:40:21.519Z,42.28
2023-03-02T04:41:24.234Z,42.25
2023-03-02T04:42:25.931Z,42.80
2023-03-02T04:43:28.650Z,42.98
2023-03-02T04:44:30.346Z,42.55
2023-03-02T04:45:33.260Z,42.52
2023-03-02T04:46:35.431Z,42.75
2023-03-02T04:47:39.783Z,42.87
2023-03-02T04:48:41.453Z,42.54
2023-03-02T04:49:44.215Z,42.55
2023-03-02T04:50:46.027Z,42.97
2023-03-02T04:51:49.666Z,42.74
2023-03-02T04:52:51.373Z,42.74
2023-03-02T04:53:54.879Z,43.17
2023-03-02T04:54:56.581Z,42.86
2023-03-02T04:55:59.443Z,43.02
2023-03-02T04:57:01.301Z,43.07
2023-03-02T04:58:04.036Z,42.80
2023-03-02T04:59:05.851Z,43.02
2023-03-02T05:00:10.921Z,43.22
2023-03-02T05:01:13.461Z,43.41
2023-03-02T05:02:16.242Z,43.31
2023-03-02T05:03:19.351Z,43.07
2023-03-02T05:04:22.374Z,43.27
2023-03-02T05:05:24.890Z,42.91
2023-03-02T05:06:27.634Z,42.84
2023-03-02T05:07:29.380Z,43.34
2023-03-02T05:08:32.724Z,43.25
2023-03-02T05:09:34.558Z,43.46
2023-03-02T05:10:37.256Z,43.02
2023-03-02T05:11:38.942Z,43.21
2023-03-02T05:12:55.179Z,42.78
2023-03-02T05:14:00.233Z,43.10
2023-03-02T05:15:02.906Z,43.07
2023-03-02T05:16:05.412Z,43.05
2023-03-02T05:17:08.370Z,42.59
2023-03-02T05:18:11.223Z,42.83
2023-03-02T05:19:15.454Z,43.37
2023-03-02T05:20:17.779Z,43.18
2023-03-02T05:21:20.481Z,43.03
2023-03-02T05:22:22.175Z,42.85
2023-03-02T05:23:25.843Z,43.18
2023-03-02T05:24:27.826Z,42.94
2023-03-02T05:25:32.133Z,42.60
2023-03-02T05:26:34.716Z,43.23
2023-03-02T05:27:37.847Z,43.30
2023-03-02T05:28:40.168Z,43.07
2023-03-02T05:29:42.846Z,43.14
2023-03-02T05:30:44.957Z,42.93
2023-03-02T05:31:48.456Z,43.01
2023-03-02T05:32:51.286Z,43.40
2023-03-02T05:33:54.010Z,43.33
2023-03-02T05:34:57.062Z,43.13
2023-03-02T05:35:59.911Z,42.83
2023-03-02T05:37:01.707Z,43.08
2023-03-02T05:38:05.119Z,42.90
2023-03-02T05:39:07.112Z,43.33
2023-03-02T05:40:11.417Z,43.35
2023-03-02T05:41:13.259Z,42.69
2023-03-02T05:42:16.016Z,43.17
2023-03-02T05:43:20.455Z,43.02
2023-03-02T05:44:23.160Z,42.92
2023-03-02T05:45:27.220Z,42.92
2023-03-02T05:46:30.213Z,43.05
2023-03-02T05:47:31.964Z,42.88
2023-03-02T05:48:34.759Z,43.02
2023-03-02T05:49:36.473Z,43.53
2023-03-02T05:50:40.561Z,43.04
2023-03-02T05:51:42.280Z,42.92
2023-03-02T05:52:45.465Z,43.01
2023-03-02T05:53:47.135Z,42.79
2023-03-02T05:54:49.848Z,42.80
2023-03-02T05:55:51.845Z,43.05
2023-03-02T05:56:54.549Z,42.83
2023-03-02T05:57:56.736Z,43.49
2023-03-02T05:58:59.465Z,43.41
2023-03-02T06:00:01.195Z,43.51
2023-03-02T06:01:03.950Z,43.48
2023-03-02T06:02:05.846Z,43.63
2023-03-02T06:03:08.770Z,43.30
2023-03-02T06:04:11.478Z,43.71
2023-03-02T06:05:14.496Z,43.40
2023-03-02T06:06:18.814Z,43.47
2023-03-02T06:07:20.544Z,43.21
2023-03-02T06:08:23.460Z,43.00
2023-03-02T06:09:25.850Z,43.47
2023-03-02T06:10:28.724Z,43.65
2023-03-02T06:11:30.431Z,43.48
2023-03-02T06:12:33.741Z,43.37
2023-03-02T06:13:35.892Z,43.25
2023-03-02T06:14:38.643Z,43.07
2023-03-02T06:15:40.638Z,43.34
2023-03-02T06:16:43.343Z,42.99
2023-03-02T06:17:45.455Z,42.92
2023-03-02T06:18:48.166Z,42.97
2023-03-02T06:19:49.843Z,42.81
2023-03-02T06:20:52.568Z,43.19
2023-03-02T06:21:55.625Z,42.98
2023-03-02T06:22:58.465Z,42.91
2023-03-02T06:24:01.270Z,43.13
2023-03-02T06:25:04.199Z,42.69
2023-03-02T06:26:10.038Z,43.12
2023-03-02T06:27:12.534Z,42.66
2023-03-02T06:28:15.474Z,43.20
2023-03-02T06:29:17.222Z,42.61
2023-03-02T06:30:22.693Z,42.72
2023-03-02T06:31:25.431Z,42.56
2023-03-02T06:32:27.200Z,42.61
2023-03-02T06:33:30.539Z,42.91
2023-03-02T06:34:33.997Z,42.56
2023-03-02T06:35:38.202Z,42.47
2023-03-02T06:36:40.070Z,42.08
2023-03-02T06:37:44.525Z,42.39
2023-03-02T06:38:46.248Z,42.34
2023-03-02T06:39:48.915Z,42.24
2023-03-02T06:40:50.749Z,42.16
2023-03-02T06:41:53.520Z,42.20
2023-03-02T06:42:55.177Z,42.00
2023-03-02T06:43:57.843Z,42.83
2023-03-02T06:45:00.606Z,42.64
2023-03-02T06:46:04.149Z,42.18
2023-03-02T06:47:05.926Z,41.89
2023-03-02T06:48:08.864Z,42.03
2023-03-02T06:49:13.368Z,42.54
2023-03-02T06:50:16.865Z,41.96
2023-03-02T06:51:19.612Z,42.43
2023-03-02T06:52:21.421Z,42.48
2023-03-02T06:53:25.615Z,41.57
2023-03-02T06:54:27.303Z,41.71
2023-03-02T06:55:30.057Z,42.42
2023-03-02T06:56:32.113Z,42.37
2023-03-02T06:57:35.032Z,41.83
2023-03-02T06:58:37.289Z,42.11
2023-03-02T06:59:39.986Z,42.38
2023-03-02T07:00:41.741Z,42.20
2023-03-02T07:01:44.710Z,41.73
2023-03-02T07:02:46.996Z,41.79
2023-03-02T07:03:49.836Z,42.03
2023-03-02T07:04:51.565Z,41.54
2023-03-02T07:05:54.317Z,41.60
2023-03-02T07:06:56.042Z,41.62
2023-03-02T07:07:59.359Z,41.81
2023-03-02T07:09:02.787Z,42.31
2023-03-02T07:10:06.419Z,41.99
2023-03-02T07:11:09.086Z,42.87
2023-03-02T07:12:11.787Z,41.92
2023-03-02T07:13:13.619Z,41.88
2023-03-02T07:14:16.529Z,42.21
2023-03-02T07:15:19.680Z,41.73
2023-03-02T07:16:21.382Z,41.95
2023-03-02T07:17:24.138Z,42.18
2023-03-02T07:18:25.897Z,41.95
2023-03-02T07:19:28.590Z,41.53
2023-03-02T07:20:31.227Z,41.75
2023-03-02T07:21:33.230Z,42.02
2023-03-02T07:22:36.079Z,41.94
2023-03-02T07:23:37.797Z,41.82
2023-03-02T07:24:43.983Z,40.92
2023-03-02T07:25:46.570Z,41.32
2023-03-02T07:26:49.322Z,40.48
2023-03-02T07:27:51.139Z,40.68
2023-03-02T07:28:53.828Z,40.30
2023-03-02T07:29:56.636Z,40.40
2023-03-02T07:30:59.405Z,40.22
2023-03-02T07:32:01.213Z,40.76
2023-03-02T07:33:04.029Z,39.95
2023-03-02T07:34:05.713Z,39.99
2023-03-02T07:35:09.065Z,39.93
2023-03-02T07:36:10.781Z,39.77
2023-03-02T07:37:13.447Z,39.51
2023-03-02T07:38:15.151Z,39.30
2023-03-02T07:39:17.874Z,39.17
2023-03-02T07:40:22.115Z,38.94
2023-03-02T07:41:23.810Z,38.71
2023-03-02T07:42:26.555Z,38.48
2023-03-02T07:43:29.292Z,38.97
2023-03-02T07:44:32.292Z,38.25
2023-03-02T07:45:34.029Z,38.35
2023-03-02T07:46:36.768Z,38.43
2023-03-02T07:47:38.528Z,38.51
2023-03-02T07:48:41.217Z,38.35
2023-03-02T07:49:42.960Z,38.06
2023-03-02T07:50:45.626Z,38.15
2023-03-02T07:51:47.356Z,38.01
2023-03-02T07:52:50.104Z,38.04
2023-03-02T07:53:51.878Z,38.17
2023-03-02T07:54:54.568Z,38.09
2023-03-02T07:55:57.692Z,37.72
2023-03-02T07:57:00.648Z,37.76
2023-03-02T07:58:03.338Z,37.59
2023-03-02T07:59:06.130Z,37.36
2023-03-02T08:00:11.334Z,37.47
2023-03-02T08:01:13.005Z,37.26
2023-03-02T08:02:18.165Z,37.50
2023-03-02T08:03:20.957Z,37.42
2023-03-02T08:04:22.998Z,37.39
2023-03-02T08:05:25.724Z,37.23
2023-03-02T08:06:28.432Z,37.36
2023-03-02T08:07:31.214Z,36.88
2023-03-02T08:08:33.921Z,36.41
2023-03-02T08:09:35.618Z,36.93
2023-03-02T08:10:38.368Z,36.80
2023-03-02T08:11:41.953Z,36.89
2023-03-02T08:12:45.608Z,36.86
2023-03-02T08:13:47.741Z,36.66
2023-03-02T08:14:50.527Z,37.04
2023-03-02T08:15:59.841Z,36.29
2023-03-02T08:17:02.742Z,36.18
2023-03-02T08:18:04.579Z,36.41
2023-03-02T08:19:07.311Z,36.55
2023-03-02T08:20:10.289Z,37.07
2023-03-02T08:21:14.294Z,36.07
2023-03-02T08:22:16.968Z,36.36
2023-03-02T08:23:19.674Z,36.06
2023-03-02T08:24:22.399Z,35.95
2023-03-02T08:25:24.111Z,35.42
2023-03-02T08:26:26.735Z,35.69
2023-03-02T08:27:30.833Z,35.84
2023-03-02T08:28:32.687Z,35.50
2023-03-02T08:29:35.441Z,35.80
2023-03-02T08:30:37.151Z,35.51
2023-03-02T08:31:39.821Z,35.57
2023-03-02T08:32:41.653Z,35.82
2023-03-02T08:33:46.003Z,35.72
2023-03-02T08:34:51.266Z,35.25
2023-03-02T08:35:57.705Z,35.32
2023-03-02T08:37:00.529Z,34.69
2023-03-02T08:38:02.325Z,35.11
2023-03-02T08:39:05.147Z,34.26
2023-03-02T08:40:08.079Z,34.60
2023-03-02T08:41:13.014Z,34.85
2023-03-02T08:42:16.258Z,34.08
2023-03-02T08:43:19.515Z,34.80
2023-03-02T08:44:22.426Z,34.53
2023-03-02T08:45:24.532Z,34.62
2023-03-02T08:46:27.258Z,34.79
2023-03-02T08:47:29.078Z,33.84
2023-03-02T08:48:32.358Z,34.21
2023-03-02T08:49:34.098Z,33.82
2023-03-02T08:50:36.866Z,33.96
2023-03-02T08:51:38.898Z,34.40
2023-03-02T08:52:41.617Z,33.69
2023-03-02T08:53:45.401Z,34.29
2023-03-02T08:54:48.128Z,34.27
2023-03-02T08:55:50.826Z,33.78
2023-03-02T08:56:53.542Z,34.14
2023-03-02T08:57:55.684Z,33.86
2023-03-02T08:59:01.568Z,33.50
2023-03-02T09:00:08.608Z,34.14
2023-03-02T09:01:15.124Z,33.49
2023-03-02T09:02:17.934Z,33.76
2023-03-02T09:03:19.704Z,33.14
2023-03-02T09:04:22.555Z,33.28
2023-03-02T09:05:24.305Z,33.70
2023-03-02T09:06:27.093Z,33.65
2023-03-02T09:07:30.487Z,33.14
2023-03-02T09:08:33.184Z,33.23
2023-03-02T09:09:35.910Z,33.27
2023-03-02T09:10:37.730Z,33.46
2023-03-02T09:11:42.251Z,33.41
2023-03-02T09:12:44.001Z,32.76
2023-03-02T09:13:46.677Z,32.96
2023-03-02T09:14:50.840Z,33.08
2023-03-02T09:15:52.566Z,33.00
2023-03-02T09:16:55.460Z,32.68
2023-03-02T09:17:57.511Z,32.92
2023-03-02T09:19:00.161Z,33.04
2023-03-02T09:20:01.851Z,32.81
2023-03-02T09:21:05.294Z,32.83
2023-03-02T09:22:07.062Z,32.42
2023-03-02T09:23:11.048Z,32.29
2023-03-02T09:24:13.769Z,32.85
2023-03-02T09:25:15.646Z,32.80
2023-03-02T09:26:18.327Z,33.11
2023-03-02T09:27:21.055Z,32.65
2023-03-02T09:28:24.550Z,32.76
2023-03-02T09:29:26.239Z,32.57
2023-03-02T09:30:30.294Z,32.51
2023-03-02T09:31:32.600Z,32.65
2023-03-02T09:32:36.129Z,32.63
2023-03-02T09:33:39.111Z,32.41
2023-03-02T09:34:41.806Z,32.34
2023-03-02T09:35:43.555Z,32.24
2023-03-02T09:36:46.310Z,32.17
2023-03-02T09:37:48.077Z,32.09
2023-03-02T09:38:51.058Z,31.94
2023-03-02T09:39:52.743Z,31.91
2023-03-02T09:41:13.436Z,31.78
2023-03-02T09:42:27.134Z,31.79
2023-03-02T09:43:43.183Z,31.88
2023-03-02T09:45:01.649Z,31.71
2023-03-02T09:46:15.706Z,31.56
2023-03-02T09:47:34.837Z,31.65
2023-03-02T09:48:41.946Z,31.40
2023-03-02T09:49:53.828Z,31.48
2023-03-02T09:51:06.208Z,31.42
2023-03-02T09:52:12.365Z,31.11
2023-03-02T09:53:32.558Z,31.44
2023-03-02T09:54:35.248Z,31.32
2023-03-02T09:55:38.650Z,31.50
2023-03-02T09:56:45.255Z,31.06
2023-03-02T09:57:47.282Z,31.07
2023-03-02T09:58:54.786Z,31.17
2023-03-02T10:00:06.567Z,31.08
2023-03-02T10:01:23.568Z,31.09
2023-03-02T10:02:29.000Z,30.99
2023-03-02T10:03:36.253Z,30.85
2023-03-02T10:04:43.994Z,31.10
2023-03-02T10:05:48.139Z,31.20
2023-03-02T10:06:56.214Z,31.15
2023-03-02T10:07:59.504Z,30.86
2023-03-02T10:09:02.500Z,30.71
2023-03-02T10:10:13.220Z,30.63
2023-03-02T10:11:24.187Z,30.64
2023-03-02T10:12:44.777Z,30.77
2023-03-02T10:13:50.363Z,30.79
2023-03-02T10:14:58.571Z,30.56
2023-03-02T10:16:09.122Z,30.60
2023-03-02T10:17:38.340Z,30.40
2023-03-02T10:18:44.480Z,30.64
2023-03-02T10:19:48.313Z,30.22
2023-03-02T10:20:54.992Z,30.50
2023-03-02T10:22:00.381Z,30.27
2023-03-02T10:23:14.222Z,29.92
2023-03-02T10:24:24.101Z,30.00
2023-03-02T10:25:31.541Z,30.66
2023-03-02T10:26:40.519Z,30.66
2023-03-02T10:27:45.110Z,30.41
2023-03-02T10:28:49.432Z,30.24
2023-03-02T10:29:55.673Z,30.09
2023-03-02T10:31:02.986Z,30.21
2023-03-02T10:32:15.997Z,29.76
2023-03-02T10:33:21.275Z,29.62
2023-03-02T10:34:27.583Z,29.86
2023-03-02T10:35:31.920Z,29.65
2023-03-02T10:36:39.488Z,30.06
2023-03-02T10:37:41.325Z,29.43
2023-03-02T10:38:43.992Z,29.92
2023-03-02T10:39:46.877Z,29.72
2023-03-02T10:40:53.173Z,29.59
2023-03-02T10:42:00.247Z,30.19
2023-03-02T10:43:03.032Z,30.22
2023-03-02T10:44:08.369Z,29.71
2023-03-02T10:45:29.640Z,29.75
2023-03-02T10:46:42.206Z,29.43
2023-03-02T10:47:44.077Z,29.18
2023-03-02T10:48:53.188Z,28.97
2023-03-02T10:49:56.839Z,29.17
2023-03-02T10:51:00.478Z,29.72
2023-03-02T10:52:04.803Z,29.49
2023-03-02T10:53:08.896Z,29.11
2023-03-02T10:54:12.973Z,29.40
2023-03-02T10:55:17.113Z,29.46
2023-03-02T10:56:20.316Z,29.35
2023-03-02T10:57:37.555Z,29.56
2023-03-02T10:58:43.476Z,29.31
2023-03-02T10:59:46.625Z,28.75
2023-03-02T11:00:57.384Z,29.67
2023-03-02T11:02:00.244Z,29.45
2023-03-02T11:03:04.618Z,28.93
2023-03-02T11:04:15.506Z,29.46
2023-03-02T11:05:23.813Z,28.96
2023-03-02T11:06:27.094Z,29.04
2023-03-02T11:07:29.669Z,28.97
2023-03-02T11:08:32.921Z,28.79
2023-03-02T11:09:34.574Z,28.69
2023-03-02T11:10:39.145Z,28.40
2023-03-02T11:11:49.824Z,28.72
2023-03-02T11:12:54.739Z,28.70
2023-03-02T11:13:56.886Z,28.62
2023-03-02T11:15:12.926Z,28.51
2023-03-02T11:16:25.430Z,28.18
2023-03-02T11:17:32.289Z,28.42
2023-03-02T11:18:38.757Z,28.51
2023-03-02T11:19:42.248Z,28.54
2023-03-02T11:20:46.853Z,28.51
2023-03-02T11:21:52.530Z,28.47
2023-03-02T11:23:02.295Z,28.20
2023-03-02T11:24:10.603Z,28.11
2023-03-02T11:25:18.988Z,28.21
2023-03-02T11:26:24.658Z,27.88
2023-03-02T11:27:28.259Z,27.38
2023-03-02T11:28:37.968Z,27.83
2023-03-02T11:29:43.519Z,27.90
2023-03-02T11:30:48.132Z,27.99
2023-03-02T11:31:53.484Z,27.79
2023-03-02T11:33:00.014Z,27.58
2023-03-02T11:34:17.840Z,27.78
2023-03-02T11:35:31.252Z,27.59
2023-03-02T11:36:44.298Z,28.27
2023-03-02T11:37:48.989Z,27.88
2023-03-02T11:38:55.062Z,28.04
2023-03-02T11:40:15.689Z,28.08
2023-03-02T11:41:29.793Z,27.90
2023-03-02T11:42:34.952Z,27.31
2023-03-02T11:43:37.749Z,27.70
2023-03-02T11:44:39.479Z,27.61
2023-03-02T11:45:45.403Z,27.41
2023-03-02T11:46:49.739Z,27.40
2023-03-02T11:48:02.512Z,27.52
2023-03-02T11:49:09.967Z,27.57
2023-03-02T11:50:13.951Z,28.13
2023-03-02T11:51:20.712Z,27.90
2023-03-02T11:52:25.222Z,27.25
2023-03-02T11:53:31.817Z,27.95
2023-03-02T11:54:38.657Z,27.98
2023-03-02T11:55:45.696Z,28.28
2023-03-02T11:56:48.555Z,27.98
2023-03-02T11:57:53.862Z,28.11
2023-03-02T11:58:58.188Z,28.33
2023-03-02T12:00:01.146Z,28.27
2023-03-02T12:01:04.573Z,28.47
2023-03-02T12:02:09.471Z,27.99
2023-03-02T12:03:22.702Z,27.96
2023-03-02T12:04:32.230Z,27.83
2023-03-02T12:05:37.425Z,27.71
2023-03-02T12:06:44.051Z,27.81
2023-03-02T12:07:57.464Z,27.68
2023-03-02T12:09:10.800Z,27.70
2023-03-02T12:10:28.434Z,27.60
2023-03-02T12:11:35.423Z,27.42
2023-03-02T12:12:44.468Z,27.22
2023-03-02T12:13:58.924Z,27.41
2023-03-02T12:15:02.168Z,27.46
2023-03-02T12:16:05.547Z,27.39
2023-03-02T12:17:19.691Z,27.09
2023-03-02T12:18:47.243Z,27.03
2023-03-02T12:19:51.008Z,27.26
2023-03-02T12:21:00.756Z,27.42
2023-03-02T12:23:25.064Z,27.03
2023-03-02T12:24:30.504Z,27.07
2023-03-02T12:25:42.114Z,26.69
2023-03-02T12:26:45.063Z,26.73
2023-03-02T12:27:48.632Z,26.82
2023-03-02T12:28:59.325Z,26.93
2023-03-02T12:30:12.601Z,26.44
2023-03-02T12:31:15.467Z,26.78
2023-03-02T12:32:25.485Z,26.99
2023-03-02T12:33:28.387Z,27.33
2023-03-02T12:34:37.224Z,27.38
2023-03-02T12:35:40.378Z,27.03
2023-03-02T12:36:44.627Z,27.35
2023-03-02T12:37:51.850Z,27.26
2023-03-02T12:39:07.849Z,27.53
2023-03-02T12:40:33.544Z,27.49
2023-03-02T12:42:05.914Z,27.62
2023-03-02T12:43:28.296Z,27.22
2023-03-02T12:44:43.939Z,26.99
2023-03-02T12:45:55.349Z,26.78
2023-03-02T12:47:02.835Z,26.54
2023-03-02T12:48:21.319Z,26.56
2023-03-02T12:49:41.841Z,26.53
2023-03-02T12:50:43.741Z,26.50
2023-03-02T12:51:50.612Z,26.56
2023-03-02T12:52:59.512Z,26.14
2023-03-02T12:54:09.165Z,26.48
2023-03-02T12:55:17.809Z,26.15
2023-03-02T12:56:23.651Z,26.08
2023-03-02T12:57:26.600Z,26.14
2023-03-02T12:58:30.376Z,26.02
2023-03-02T12:59:33.126Z,25.91
2023-03-02T13:00:36.054Z,26.08
2023-03-02T13:01:39.100Z,26.14
2023-03-02T13:02:47.482Z,26.01
2023-03-02T13:03:50.745Z,25.95
2023-03-02T13:04:55.936Z,26.07
2023-03-02T13:06:03.524Z,26.34
2023-03-02T13:07:06.706Z,26.14
2023-03-02T13:08:15.334Z,26.27
2023-03-02T13:09:20.378Z,26.25
2023-03-02T13:10:28.534Z,26.22
2023-03-02T13:11:34.192Z,26.15
2023-03-02T13:12:38.039Z,26.23
2023-03-02T13:13:41.650Z,26.11
2023-03-02T13:14:46.800Z,25.93
2023-03-02T13:15:50.956Z,26.05
2023-03-02T13:16:58.224Z,25.57
2023-03-02T13:18:01.408Z,25.00
2023-03-02T13:19:16.608Z,24.91
2023-03-02T13:20:20.610Z,25.35
2023-03-02T13:21:27.921Z,25.08
2023-03-02T13:22:29.944Z,25.64
2023-03-02T13:23:34.879Z,25.28
2023-03-02T13:24:47.216Z,25.18
2023-03-02T13:25:51.912Z,25.26
2023-03-02T13:26:57.442Z,25.16
2023-03-02T13:28:07.455Z,24.88
2023-03-02T13:29:20.674Z,24.75
2023-03-02T13:30:26.054Z,24.68
2023-03-02T13:31:29.033Z,24.46
2023-03-02T13:32:36.619Z,24.28
2023-03-02T13:33:44.853Z,24.27
2023-03-02T13:34:49.543Z,24.44
2023-03-02T13:35:52.454Z,24.82
2023-03-02T13:36:55.790Z,24.70
2023-03-02T13:38:00.924Z,24.72
2023-03-02T13:39:07.020Z,25.08
2023-03-02T13:40:33.645Z,24.45
2023-03-02T13:41:37.993Z,24.69
2023-03-02T13:42:41.781Z,24.39
2023-03-02T13:43:44.580Z,24.27
2023-03-02T13:44:46.497Z,24.26
2023-03-02T13:45:55.109Z,24.13
2023-03-02T13:46:58.619Z,24.12
2023-03-02T13:48:13.719Z,24.20
2023-03-02T13:49:27.371Z,24.21
2023-03-02T13:50:31.782Z,23.63
2023-03-02T13:51:36.075Z,23.75
2023-03-02T13:52:40.781Z,24.20
2023-03-02T13:53:47.078Z,24.23